createdAt,value
2018-06-22T00:00:23.528Z,1.40
2018-06-22T00:02:52.824Z,1.62
2018-06-22T00:05:21.983Z,1.17
2018-06-22T00:07:50.918Z,1.45
2018-06-22T00:10:20.303Z,1.00
2018-06-22T00:12:49.301Z,1.57
2018-06-22T00:15:18.396Z,1.20
2018-06-22T00:17:47.294Z,1.60
2018-06-22T00:20:16.278Z,1.45
2018-06-22T00:22:45.188Z,1.50
2018-06-22T00:25:14.115Z,1.27
2018-06-22T00:27:43.179Z,1.45
2018-06-22T00:30:12.106Z,1.70
2018-06-22T00:32:41.004Z,1.50
2018-06-22T00:35:09.892Z,1.20
2018-06-22T00:37:38.847Z,1.92
2018-06-22T00:40:07.843Z,2.25
2018-06-22T00:42:36.794Z,1.27
2018-06-22T00:45:05.914Z,1.42
2018-06-22T00:47:34.804Z,1.32
2018-06-22T00:50:03.862Z,1.35
2018-06-22T00:52:33.295Z,1.92
2018-06-22T00:55:02.248Z,1.77
2018-06-22T00:57:31.601Z,1.80
2018-06-22T01:00:01.344Z,1.32
2018-06-22T01:02:30.606Z,1.80
2018-06-22T01:05:00.033Z,1.50
2018-06-22T01:07:28.942Z,1.80
2018-06-22T01:09:57.873Z,1.87
2018-06-22T01:12:27.071Z,1.72
2018-06-22T01:14:55.971Z,1.70
2018-06-22T01:17:24.895Z,1.75
2018-06-22T01:19:53.809Z,1.42
2018-06-22T01:22:22.816Z,1.60
2018-06-22T01:24:51.688Z,1.77
2018-06-22T01:27:20.635Z,1.70
2018-06-22T01:29:49.518Z,1.90
2018-06-22T01:32:18.438Z,1.82
2018-06-22T01:34:47.429Z,1.60
2018-06-22T01:37:16.346Z,2.17
2018-06-22T01:39:45.304Z,2.52
2018-06-22T01:42:14.399Z,1.77
2018-06-22T01:44:43.390Z,2.40
2018-06-22T01:47:12.389Z,1.77
2018-06-22T01:49:41.744Z,1.65
2018-06-22T01:52:10.644Z,1.90
2018-06-22T01:54:39.587Z,1.72
2018-06-22T01:57:08.508Z,1.50
2018-06-22T01:59:37.641Z,1.87
2018-06-22T02:02:06.890Z,2.42
2018-06-22T02:04:36.284Z,2.00
2018-06-22T02:07:05.451Z,1.92
2018-06-22T02:09:34.412Z,1.50
2018-06-22T02:12:03.412Z,2.40
2018-06-22T02:14:32.360Z,1.90
2018-06-22T02:17:01.598Z,1.75
2018-06-22T02:19:30.499Z,1.90
2018-06-22T02:21:59.407Z,1.75
2018-06-22T02:24:28.774Z,1.25
2018-06-22T02:26:57.685Z,2.50
2018-06-22T02:29:26.656Z,1.95
2018-06-22T02:31:55.643Z,1.42
2018-06-22T02:34:24.596Z,1.95
2018-06-22T02:36:54.016Z,1.87
2018-06-22T02:39:22.907Z,2.15
2018-06-22T02:41:51.871Z,1.70
2018-06-22T02:44:20.835Z,2.05
2018-06-22T02:46:50.304Z,1.82
2018-06-22T02:49:19.215Z,2.40
2018-06-22T02:51:48.388Z,2.17
2018-06-22T02:54:17.314Z,2.05
2018-06-22T02:56:46.265Z,1.80
2018-06-22T02:59:15.177Z,1.80
2018-06-22T03:01:44.039Z,1.60
2018-06-22T03:04:12.948Z,2.50
2018-06-22T03:06:41.818Z,1.98
2018-06-22T03:09:10.743Z,2.72
2018-06-22T03:11:39.627Z,2.10
2018-06-22T03:14:08.558Z,2.22
2018-06-22T03:16:37.451Z,1.77
2018-06-22T03:19:06.350Z,2.40
2018-06-22T03:21:35.262Z,2.20
2018-06-22T03:24:04.163Z,2.08
2018-06-22T03:26:33.235Z,1.50
2018-06-22T03:29:02.118Z,2.02
2018-06-22T03:31:31.151Z,1.90
2018-06-22T03:34:00.612Z,1.70
2018-06-22T03:36:29.807Z,1.90
2018-06-22T03:38:59.050Z,1.85
2018-06-22T03:41:27.988Z,2.10
2018-06-22T03:43:57.087Z,1.45
2018-06-22T03:46:26.180Z,1.60
2018-06-22T03:48:55.582Z,1.70
2018-06-22T03:51:24.639Z,1.50
2018-06-22T03:53:53.664Z,1.50
2018-06-22T03:56:22.535Z,1.72
2018-06-22T03:58:51.471Z,1.80
2018-06-22T04:01:20.576Z,1.20
2018-06-22T04:03:49.515Z,1.47
2018-06-22T04:06:18.441Z,1.27
2018-06-22T04:08:47.477Z,1.60
2018-06-22T04:11:16.359Z,2.42
2018-06-22T04:13:45.604Z,1.50
2018-06-22T04:16:14.493Z,1.40
2018-06-22T04:18:43.462Z,2.40
2018-06-22T04:21:12.418Z,1.30
2018-06-22T04:23:41.391Z,1.57
2018-06-22T04:26:10.321Z,1.80
2018-06-22T04:28:39.194Z,1.50
2018-06-22T04:31:08.114Z,1.92
2018-06-22T04:33:37.106Z,1.52
2018-06-22T04:36:06.383Z,1.77
2018-06-22T04:38:35.709Z,2.10
2018-06-22T04:41:05.633Z,1.60
2018-06-22T04:43:34.655Z,1.30
2018-06-22T04:46:04.618Z,2.00
2018-06-22T04:48:33.516Z,1.30
2018-06-22T04:51:02.907Z,1.95
2018-06-22T04:53:32.164Z,1.60
2018-06-22T04:56:01.090Z,1.40
2018-06-22T04:58:30.184Z,1.25
2018-06-22T05:00:59.068Z,2.37
2018-06-22T05:03:28.047Z,2.55
2018-06-22T05:05:56.983Z,1.75
2018-06-22T05:08:25.926Z,1.57
2018-06-22T05:10:54.843Z,1.40
2018-06-22T05:13:23.758Z,1.70
2018-06-22T05:15:52.660Z,1.60
2018-06-22T05:18:21.603Z,1.40
2018-06-22T05:20:50.485Z,2.00
2018-06-22T05:23:20.195Z,1.67
2018-06-22T05:25:49.606Z,1.25
2018-06-22T05:28:18.481Z,2.75
2018-06-22T05:30:47.449Z,1.80
2018-06-22T05:33:16.343Z,2.47
2018-06-22T05:35:45.280Z,1.40
2018-06-22T05:38:14.808Z,1.45
2018-06-22T05:40:44.882Z,1.30
2018-06-22T05:43:14.681Z,1.70
2018-06-22T05:45:44.386Z,1.60
2018-06-22T05:48:13.269Z,1.35
2018-06-22T05:50:42.523Z,1.20
2018-06-22T05:53:11.417Z,2.25
2018-06-22T05:55:40.340Z,1.42
2018-06-22T05:58:10.729Z,1.40
2018-06-22T06:00:40.508Z,1.47
2018-06-22T06:03:09.469Z,1.30
2018-06-22T06:05:39.742Z,2.40
2018-06-22T06:08:08.750Z,1.45
2018-06-22T06:10:37.750Z,1.40
2018-06-22T06:13:06.758Z,1.30
2018-06-22T06:15:35.631Z,1.17
2018-06-22T06:18:04.600Z,1.25
2018-06-22T06:20:36.805Z,1.75
2018-06-22T06:23:06.260Z,1.52
2018-06-22T06:25:35.354Z,1.67
2018-06-22T06:28:04.301Z,1.10
2018-06-22T06:30:33.267Z,1.55
2018-06-22T06:33:04.149Z,1.22
2018-06-22T06:35:33.739Z,0.93
2018-06-22T06:38:02.273Z,3.15
2018-06-22T06:40:31.193Z,2.00
2018-06-22T06:43:00.075Z,0.93
2018-06-22T06:45:29.023Z,1.35
2018-06-22T06:47:57.888Z,1.30
2018-06-22T06:50:26.814Z,1.47
2018-06-22T06:52:57.567Z,1.42
2018-06-22T06:55:26.517Z,1.22
2018-06-22T06:57:55.781Z,1.22
2018-06-22T07:00:25.230Z,1.22
2018-06-22T07:02:54.767Z,1.00
2018-06-22T07:05:24.348Z,1.60
2018-06-22T07:07:53.320Z,1.98
2018-06-22T07:10:23.333Z,1.30
2018-06-22T07:12:52.267Z,0.90
2018-06-22T07:15:21.829Z,1.45
2018-06-22T07:17:51.245Z,0.90
2018-06-22T07:20:20.227Z,0.98
2018-06-22T07:22:49.255Z,2.47
2018-06-22T07:25:18.285Z,2.00
2018-06-22T07:27:47.757Z,1.47
2018-06-22T07:30:17.702Z,1.75
2018-06-22T07:32:46.931Z,1.50
2018-06-22T07:35:15.844Z,1.87
2018-06-22T07:37:45.108Z,1.35
2018-06-22T07:40:14.131Z,1.98
2018-06-22T07:42:43.133Z,1.47
2018-06-22T07:45:12.040Z,1.20
2018-06-22T07:47:40.982Z,1.40
2018-06-22T07:50:09.884Z,0.93
2018-06-22T07:52:38.886Z,1.70
2018-06-22T07:55:07.897Z,0.68
2018-06-22T07:57:36.427Z,1.10
2018-06-22T08:00:06.342Z,1.10
2018-06-22T08:02:35.242Z,1.02
2018-06-22T08:05:04.240Z,1.17
2018-06-22T08:07:33.158Z,1.10
2018-06-22T08:10:02.048Z,1.10
2018-06-22T08:12:31.006Z,1.20
2018-06-22T08:15:00.466Z,1.00
2018-06-22T08:17:29.425Z,1.15
2018-06-22T08:19:58.312Z,0.60
2018-06-22T08:22:27.495Z,0.82
2018-06-22T08:24:56.403Z,1.00
2018-06-22T08:27:25.332Z,1.00
2018-06-22T08:29:54.232Z,0.95
2018-06-22T08:32:23.167Z,1.12
2018-06-22T08:34:52.215Z,0.90
2018-06-22T08:37:21.175Z,1.35
2018-06-22T08:39:50.107Z,1.15
2018-06-22T08:42:19.115Z,1.05
2018-06-22T08:44:48.188Z,1.32
2018-06-22T08:47:17.090Z,1.55
2018-06-22T08:49:46.078Z,1.40
2018-06-22T08:52:14.958Z,0.80
2018-06-22T08:54:43.941Z,1.00
2018-06-22T08:57:12.858Z,0.78
2018-06-22T08:59:41.956Z,1.27
2018-06-22T09:02:10.935Z,1.07
2018-06-22T09:04:40.528Z,0.70
2018-06-22T09:07:09.427Z,1.40
2018-06-22T09:09:38.330Z,1.52
2018-06-22T09:12:06.978Z,1.62
2018-06-22T09:14:36.060Z,1.50
2018-06-22T09:17:05.355Z,1.00
2018-06-22T09:19:34.322Z,1.20
2018-06-22T09:22:03.271Z,0.90
2018-06-22T09:24:32.216Z,1.30
2018-06-22T09:27:01.148Z,1.50
2018-06-22T09:29:30.080Z,1.45
2018-06-22T09:31:59.007Z,1.42
2018-06-22T09:34:27.998Z,0.98
2018-06-22T09:36:56.986Z,0.90
2018-06-22T09:39:25.862Z,1.80
2018-06-22T09:41:55.154Z,1.75
2018-06-22T09:44:32.494Z,1.52
2018-06-22T09:47:01.400Z,2.20
2018-06-22T09:49:30.380Z,1.05
2018-06-22T09:51:59.292Z,1.55
2018-06-22T09:54:28.290Z,1.65
2018-06-22T09:56:57.618Z,1.07
2018-06-22T09:59:26.918Z,1.25
2018-06-22T10:01:56.383Z,1.30
2018-06-22T10:04:25.639Z,0.88
2018-06-22T10:06:54.524Z,1.10
2018-06-22T10:09:23.501Z,1.10
2018-06-22T10:11:52.534Z,1.42
2018-06-22T10:14:21.526Z,1.45
2018-06-22T10:16:50.695Z,1.30
2018-06-22T10:19:20.067Z,1.10
2018-06-22T10:21:49.662Z,1.30
2018-06-22T10:24:18.644Z,3.02
2018-06-22T10:26:47.780Z,1.55
2018-06-22T10:29:16.435Z,1.02
2018-06-22T10:31:45.703Z,1.65
2018-06-22T10:34:15.315Z,1.85
2018-06-22T10:39:18.279Z,1.40
2018-06-22T10:41:48.047Z,1.60
2018-06-22T10:44:17.477Z,1.42
2018-06-22T10:46:46.979Z,1.62
2018-06-22T10:49:16.072Z,1.70
2018-06-22T10:51:45.214Z,1.65
2018-06-22T10:54:14.406Z,1.85
2018-06-22T10:56:43.519Z,1.90
2018-06-22T10:59:12.768Z,1.65
2018-06-22T11:01:42.335Z,1.92
2018-06-22T11:04:11.496Z,1.30
2018-06-22T11:06:41.948Z,0.98
2018-06-22T11:09:12.620Z,1.32
2018-06-22T11:11:41.776Z,0.90
2018-06-22T11:14:10.791Z,0.82
2018-06-22T11:16:39.936Z,0.90
2018-06-22T11:19:08.866Z,0.90
2018-06-22T11:21:37.817Z,1.10
2018-06-22T11:24:06.879Z,1.00
2018-06-22T11:26:35.866Z,0.70
2018-06-22T11:29:04.830Z,1.20
2018-06-22T11:31:33.839Z,0.72
2018-06-22T11:34:02.318Z,1.10
2018-06-22T11:36:30.960Z,1.37
2018-06-22T11:38:59.871Z,1.22
2018-06-22T11:41:28.862Z,1.17
2018-06-22T11:43:57.768Z,0.88
2018-06-22T11:46:26.701Z,1.30
2018-06-22T11:48:55.793Z,1.40
2018-06-22T11:51:24.672Z,1.30
2018-06-22T11:53:54.303Z,1.42
2018-06-22T11:56:23.627Z,1.00
2018-06-22T11:58:52.809Z,1.20
2018-06-22T12:01:22.174Z,1.10
2018-06-22T12:03:51.088Z,0.90
2018-06-22T12:06:20.092Z,2.17
2018-06-22T12:08:49.670Z,1.30
2018-06-22T12:11:18.686Z,1.60
2018-06-22T12:13:48.268Z,1.77
2018-06-22T12:16:17.270Z,2.10
2018-06-22T12:18:46.914Z,1.80
2018-06-22T12:21:15.935Z,1.90
2018-06-22T12:23:44.910Z,1.67
2018-06-22T12:26:13.844Z,1.67
2018-06-22T12:28:42.858Z,1.90
2018-06-22T12:31:11.810Z,1.50
2018-06-22T12:33:40.730Z,2.02
2018-06-22T12:36:09.648Z,2.80
2018-06-22T12:38:38.564Z,2.72
2018-06-22T12:41:20.553Z,2.22
2018-06-22T12:43:49.553Z,2.90
2018-06-22T12:46:18.588Z,1.57
2018-06-22T12:48:48.436Z,1.80
2018-06-22T12:51:17.342Z,1.92
2018-06-22T12:53:46.270Z,1.80
2018-06-22T12:56:15.208Z,1.60
2018-06-22T12:58:44.172Z,1.27
2018-06-22T13:01:27.356Z,1.85
2018-06-22T13:03:56.490Z,1.50
2018-06-22T13:06:25.450Z,1.87
2018-06-22T13:08:54.411Z,1.45
2018-06-22T13:11:23.302Z,1.75
2018-06-22T13:13:53.346Z,2.15
2018-06-22T13:16:22.315Z,1.50
2018-06-22T13:18:51.300Z,1.80
2018-06-22T13:21:20.199Z,1.92
2018-06-22T13:23:49.253Z,1.90
2018-06-22T13:26:18.198Z,1.70
2018-06-22T13:28:47.145Z,1.50
2018-06-22T13:31:16.057Z,1.40
2018-06-22T13:33:45.031Z,1.60
2018-06-22T13:36:13.955Z,1.40
2018-06-22T13:38:42.853Z,1.30
2018-06-22T13:41:11.771Z,1.20
2018-06-22T13:43:40.689Z,1.05
2018-06-22T13:46:09.666Z,1.10
2018-06-22T13:48:38.582Z,1.50
2018-06-22T13:51:07.507Z,1.40
2018-06-22T13:53:36.446Z,1.50
2018-06-22T13:56:05.486Z,1.52
2018-06-22T13:58:34.433Z,1.87
2018-06-22T14:01:03.359Z,1.70
2018-06-22T14:03:32.294Z,1.60
2018-06-22T14:06:06.611Z,1.60
2018-06-22T14:08:35.528Z,1.67
2018-06-22T14:11:04.396Z,2.90
2018-06-22T14:13:33.323Z,1.40
2018-06-22T14:16:02.200Z,2.05
2018-06-22T14:18:31.180Z,1.30
2018-06-22T14:21:00.186Z,2.00
2018-06-22T14:23:29.146Z,1.40
2018-06-22T14:25:58.609Z,1.35
2018-06-22T14:28:27.532Z,1.62
2018-06-22T14:30:57.191Z,1.60
2018-06-22T14:33:26.121Z,1.55
2018-06-22T14:35:55.230Z,1.40
2018-06-22T14:38:24.515Z,1.30
2018-06-22T14:40:53.480Z,1.45
2018-06-22T14:43:22.538Z,1.70
2018-06-22T14:45:51.473Z,1.15
2018-06-22T14:48:20.539Z,1.12
2018-06-22T14:50:49.611Z,1.52
2018-06-22T14:53:23.856Z,1.37
2018-06-22T14:55:59.851Z,1.35
2018-06-22T14:58:34.742Z,0.90
2018-06-22T15:01:08.979Z,1.05
2018-06-22T15:03:43.227Z,1.07
2018-06-22T15:06:17.535Z,0.70
2018-06-22T15:08:46.517Z,1.95
2018-06-22T15:11:15.500Z,1.00
2018-06-22T15:13:44.475Z,1.92
2018-06-22T15:16:13.358Z,1.45
2018-06-22T15:18:42.294Z,1.35
2018-06-22T15:21:11.215Z,1.22
2018-06-22T15:23:40.223Z,1.40
2018-06-22T15:26:09.146Z,1.32
2018-06-22T15:28:38.117Z,1.70
2018-06-22T15:31:07.250Z,1.80
2018-06-22T15:33:41.431Z,1.65
2018-06-22T15:36:15.687Z,1.30
2018-06-22T15:38:49.733Z,1.40
2018-06-22T15:41:23.997Z,1.72
2018-06-22T15:43:58.284Z,1.12
2018-06-22T15:46:32.408Z,1.00
2018-06-22T15:49:06.611Z,0.70
2018-06-22T15:51:41.333Z,1.45
2018-06-22T15:54:15.498Z,1.07
2018-06-22T15:56:44.925Z,0.70
2018-06-22T15:59:13.883Z,0.75
2018-06-22T16:01:42.816Z,0.98
2018-06-22T16:04:12.869Z,0.80
2018-06-22T16:06:41.827Z,0.80
2018-06-22T16:09:11.746Z,0.80
2018-06-22T16:11:40.683Z,0.90
2018-06-22T16:14:14.833Z,1.30
2018-06-22T16:16:48.981Z,1.15
2018-06-22T16:19:23.259Z,1.12
2018-06-22T16:21:57.461Z,1.25
2018-06-22T16:25:34.897Z,1.60
2018-06-22T16:28:04.930Z,1.17
2018-06-22T16:30:33.912Z,1.10
2018-06-22T16:33:02.939Z,1.32
2018-06-22T16:35:31.892Z,2.05
2018-06-22T16:38:00.832Z,1.32
2018-06-22T16:40:29.738Z,1.10
2018-06-22T16:42:58.692Z,1.10
2018-06-22T16:45:27.704Z,1.02
2018-06-22T16:47:56.607Z,1.32
2018-06-22T16:50:25.566Z,1.32
2018-06-22T16:52:54.562Z,1.47
2018-06-22T16:55:23.821Z,1.17
2018-06-22T16:57:54.420Z,1.90
2018-06-22T17:00:23.362Z,2.40
2018-06-22T17:02:52.239Z,1.85
2018-06-22T17:05:21.176Z,1.30
2018-06-22T17:07:55.283Z,1.35
2018-06-22T17:10:29.339Z,4.62
2018-06-22T17:13:03.599Z,1.47
2018-06-22T17:15:37.779Z,2.85
2018-06-22T17:18:12.042Z,1.60
2018-06-22T17:20:41.156Z,1.95
2018-06-22T17:23:10.110Z,1.60
2018-06-22T17:25:39.014Z,1.20
2018-06-22T17:28:07.918Z,1.72
2018-06-22T17:30:36.815Z,1.47
2018-06-22T17:33:05.834Z,0.95
2018-06-22T17:35:35.263Z,1.10
2018-06-22T17:38:04.192Z,0.78
2018-06-22T17:40:33.139Z,1.30
2018-06-22T17:43:02.057Z,0.80
2018-06-22T17:45:31.007Z,0.88
2018-06-22T17:47:59.988Z,1.12
2018-06-22T17:50:30.392Z,1.40
2018-06-22T17:52:59.922Z,1.20
2018-06-22T17:55:29.135Z,1.40
2018-06-22T17:57:58.146Z,1.40
2018-06-22T18:00:32.333Z,1.05
2018-06-22T18:03:14.210Z,1.52
2018-06-22T18:05:48.320Z,1.20
2018-06-22T18:08:22.444Z,1.20
2018-06-22T18:10:56.511Z,0.72
2018-06-22T18:13:26.067Z,1.30
2018-06-22T18:15:55.023Z,1.60
2018-06-22T18:18:24.524Z,1.20
2018-06-22T18:20:53.477Z,1.82
2018-06-22T18:23:22.886Z,1.50
2018-06-22T18:25:52.171Z,1.10
2018-06-22T18:28:21.584Z,1.35
2018-06-22T18:30:50.496Z,2.22
2018-06-22T18:33:19.030Z,1.17
2018-06-22T18:35:47.971Z,1.60
2018-06-22T18:38:16.989Z,1.40
2018-06-22T18:40:45.895Z,1.55
2018-06-22T18:43:20.046Z,1.40
2018-06-22T18:45:48.926Z,1.50
2018-06-22T18:48:17.940Z,1.80
2018-06-22T18:50:46.845Z,2.33
2018-06-22T18:53:21.439Z,2.00
2018-06-22T18:55:55.598Z,1.60
2018-06-22T18:59:33.360Z,2.00
2018-06-22T19:03:08.006Z,1.95
2018-06-22T19:05:37.112Z,4.37
2018-06-22T19:08:06.844Z,2.27
2018-06-22T19:10:35.757Z,2.20
2018-06-22T19:13:04.694Z,1.90
2018-06-22T19:15:33.662Z,2.20
2018-06-22T19:18:02.311Z,2.22
2018-06-22T19:20:31.278Z,2.15
2018-06-22T19:23:00.181Z,2.80
2018-06-22T19:25:29.157Z,2.05
2018-06-22T19:27:58.166Z,2.30
2018-06-22T19:30:27.071Z,2.70
2018-06-22T19:32:56.017Z,2.72
2018-06-22T19:35:24.924Z,2.52
2018-06-22T19:37:53.947Z,2.30
2018-06-22T19:40:22.871Z,2.95
2018-06-22T19:42:51.842Z,3.52
2018-06-22T19:45:26.544Z,3.50
2018-06-22T19:48:00.916Z,3.15
2018-06-22T19:50:35.100Z,2.98
2018-06-22T19:53:09.002Z,2.90
2018-06-22T19:55:37.927Z,3.85
2018-06-22T19:58:06.932Z,4.47
2018-06-22T20:00:35.914Z,3.25
2018-06-22T20:03:04.910Z,2.37
2018-06-22T20:05:33.898Z,3.30
2018-06-22T20:08:02.885Z,2.75
2018-06-22T20:10:31.799Z,2.85
2018-06-22T20:13:00.751Z,3.35
2018-06-22T20:15:29.811Z,3.12
2018-06-22T20:18:02.451Z,2.72
2018-06-22T20:20:31.614Z,3.80
2018-06-22T20:23:00.622Z,3.90
2018-06-22T20:25:34.864Z,4.03
2018-06-22T20:28:03.834Z,2.87
2018-06-22T20:30:32.789Z,3.55
2018-06-22T20:33:01.786Z,3.20
2018-06-22T20:35:36.035Z,2.60
2018-06-22T20:38:10.627Z,3.45
2018-06-22T20:40:44.774Z,3.10
2018-06-22T20:43:18.987Z,2.80
2018-06-22T20:45:55.382Z,2.92
2018-06-22T20:48:30.509Z,2.87
2018-06-22T20:50:59.204Z,2.85
2018-06-22T20:53:28.187Z,4.05
2018-06-22T20:55:57.139Z,3.25
2018-06-22T20:58:26.122Z,3.17
2018-06-22T21:00:55.064Z,3.25
2018-06-22T21:03:23.971Z,2.20
2018-06-22T21:05:53.863Z,2.90
2018-06-22T21:08:23.312Z,2.87
2018-06-22T21:10:54.116Z,3.30
2018-06-22T21:13:23.113Z,2.92
2018-06-22T21:15:52.036Z,3.10
2018-06-22T21:18:20.963Z,2.92
2018-06-22T21:20:54.839Z,3.02
2018-06-22T21:23:23.736Z,3.75
2018-06-22T21:25:52.717Z,3.08
2018-06-22T21:28:26.805Z,3.22
2018-06-22T21:31:04.037Z,3.30
2018-06-22T21:33:38.226Z,3.70
2018-06-22T21:36:12.471Z,4.12
2018-06-22T21:38:46.583Z,3.95
2018-06-22T21:41:16.490Z,3.40
2018-06-22T21:43:45.476Z,3.20
2018-06-22T21:46:14.490Z,3.30
2018-06-22T21:48:43.467Z,3.12
2018-06-22T21:51:12.369Z,3.12
2018-06-22T21:53:41.495Z,2.90
2018-06-22T21:56:10.280Z,2.90
2018-06-22T21:58:39.253Z,3.40
2018-06-22T22:01:11.966Z,2.83
2018-06-22T22:03:41.026Z,2.83
2018-06-22T22:06:09.964Z,3.83
2018-06-22T22:08:38.878Z,3.72
2018-06-22T22:11:10.822Z,3.25
2018-06-22T22:13:41.229Z,5.28
2018-06-22T22:16:10.548Z,3.60
2018-06-22T22:18:39.514Z,3.12
2018-06-22T22:21:08.473Z,2.70
2018-06-22T22:23:37.371Z,3.30
2018-06-22T22:26:06.863Z,3.20
2018-06-22T22:28:35.765Z,3.50
2018-06-22T22:31:04.706Z,3.20
2018-06-22T22:33:33.624Z,3.80
2018-06-22T22:36:02.607Z,3.65
2018-06-22T22:38:31.486Z,3.92
2018-06-22T22:41:00.387Z,4.92
2018-06-22T22:43:29.398Z,4.05
2018-06-22T22:45:58.290Z,3.05
2018-06-22T22:48:27.215Z,3.35
2018-06-22T22:50:56.164Z,3.20
2018-06-22T22:53:25.116Z,2.80
2018-06-22T22:55:54.046Z,2.98
2018-06-22T22:58:23.023Z,3.20
2018-06-22T23:00:51.927Z,2.50
2018-06-22T23:03:20.834Z,3.50
2018-06-22T23:05:49.830Z,2.55
2018-06-22T23:08:18.786Z,3.35
2018-06-22T23:10:47.705Z,3.20
2018-06-22T23:13:16.614Z,2.98
2018-06-22T23:15:45.607Z,2.40
2018-06-22T23:18:14.511Z,3.05
2018-06-22T23:20:43.491Z,3.40
2018-06-22T23:23:23.531Z,2.77
2018-06-22T23:25:53.007Z,2.87
2018-06-22T23:28:21.933Z,3.47
2018-06-22T23:30:50.859Z,2.45
2018-06-22T23:33:19.784Z,2.83
2018-06-22T23:35:48.726Z,2.55
2018-06-22T23:38:17.674Z,2.72
2018-06-22T23:40:46.663Z,2.12
2018-06-22T23:43:15.862Z,2.90
2018-06-22T23:45:45.435Z,2.70
2018-06-22T23:48:14.764Z,3.15
2018-06-22T23:50:43.728Z,2.60
2018-06-22T23:53:12.742Z,1.80
2018-06-22T23:55:41.688Z,2.20
2018-06-22T23:58:10.740Z,2.33
